sensor_id;sensor_type;location;lat;lon;timestamp;temperature;humidity
42147;DHT22;27815;43.410;11.852;2023-03-03T03:25:43;9.30;69.10
42147;DHT22;27815;43.410;11.852;2023-03-03T03:30:23;9.30;69.20
42147;DHT22;27815;43.410;11.852;2023-03-03T03:34:41;9.30;69.10
42147;DHT22;27815;43.410;11.852;2023-03-03T03:39:19;9.30;69.10
42147;DHT22;27815;43.410;11.852;2023-03-03T03:43:46;9.30;69.20
42147;DHT22;27815;43.410;11.852;2023-03-03T03:48:48;9.40;69.10
42147;DHT22;27815;43.410;11.852;2023-03-03T03:53:35;9.40;69.10
42147;DHT22;27815;43.410;11.852;2023-03-03T03:58:34;9.40;69.10
42147;DHT22;27815;43.410;11.852;2023-03-03T04:03:26;9.40;69.10
42147;DHT22;27815;43.410;11.852;2023-03-03T04:08:32;9.40;69.10
42147;DHT22;27815;43.410;11.852;2023-03-03T04:13:00;9.40;69.10
42147;DHT22;27815;43.410;11.852;2023-03-03T04:27:26;9.30;69.10
42147;DHT22;27815;43.410;11.852;2023-03-03T04:32:35;9.30;69.10
42147;DHT22;27815;43.410;11.852;2023-03-03T04:37:20;9.10;69.30
42147;DHT22;27815;43.410;11.852;2023-03-03T04:51:57;8.80;69.90
42147;DHT22;27815;43.410;11.852;2023-03-03T04:56:50;8.70;70.10
42147;DHT22;27815;43.410;11.852;2023-03-03T14:48:28;14.40;55.00
42147;DHT22;27815;43.410;11.852;2023-03-03T16:21:16;12.00;57.80
42147;DHT22;27815;43.410;11.852;2023-03-03T16:26:49;11.90;58.00
42147;DHT22;27815;43.410;11.852;2023-03-03T17:24:38;11.00;59.40
42147;DHT22;27815;43.410;11.852;2023-03-03T17:30:53;11.00;59.60
42147;DHT22;27815;43.410;11.852;2023-03-03T20:34:14;9.00;62.90
42147;DHT22;27815;43.410;11.852;2023-03-03T20:47:01;9.00;63.10
42147;DHT22;27815;43.410;11.852;2023-03-03T20:51:10;9.00;63.10
42147;DHT22;27815;43.410;11.852;2023-03-03T20:55:18;8.90;63.10
42147;DHT22;27815;43.410;11.852;2023-03-03T20:59:30;9.00;63.20
42147;DHT22;27815;43.410;11.852;2023-03-03T21:03:37;8.90;63.20
42147;DHT22;27815;43.410;11.852;2023-03-03T21:07:51;8.90;63.40
42147;DHT22;27815;43.410;11.852;2023-03-03T21:11:55;9.00;63.40
42147;DHT22;27815;43.410;11.852;2023-03-03T21:16:08;9.00;63.40
42147;DHT22;27815;43.410;11.852;2023-03-03T21:20:30;9.00;63.40
42147;DHT22;27815;43.410;11.852;2023-03-03T21:24:56;8.90;63.50
42147;DHT22;27815;43.410;11.852;2023-03-03T21:29:01;8.60;64.00
42147;DHT22;27815;43.410;11.852;2023-03-03T21:33:05;8.40;64.30
42147;DHT22;27815;43.410;11.852;2023-03-03T21:37:09;8.20;64.40
42147;DHT22;27815;43.410;11.852;2023-03-03T21:41:16;8.10;64.50
42147;DHT22;27815;43.410;11.852;2023-03-03T21:45:19;8.00;64.60
42147;DHT22;27815;43.410;11.852;2023-03-03T21:49:22;8.00;64.70
42147;DHT22;27815;43.410;11.852;2023-03-03T21:53:24;7.90;64.70
42147;DHT22;27815;43.410;11.852;2023-03-03T21:57:28;7.90;64.80
42147;DHT22;27815;43.410;11.852;2023-03-03T22:01:34;7.70;65.00
42147;DHT22;27815;43.410;11.852;2023-03-03T22:05:40;7.70;65.10
42147;DHT22;27815;43.410;11.852;2023-03-03T22:09:43;7.80;65.30
42147;DHT22;27815;43.410;11.852;2023-03-03T22:13:46;7.90;65.20
42147;DHT22;27815;43.410;11.852;2023-03-03T22:17:49;8.00;65.20
42147;DHT22;27815;43.410;11.852;2023-03-03T22:21:52;8.00;65.20
42147;DHT22;27815;43.410;11.852;2023-03-03T22:25:55;8.00;65.10
42147;DHT22;27815;43.410;11.852;2023-03-03T22:29:58;8.10;65.10
42147;DHT22;27815;43.410;11.852;2023-03-03T22:34:01;8.10;65.10
42147;DHT22;27815;43.410;11.852;2023-03-03T22:38:03;8.10;65.10
42147;DHT22;27815;43.410;11.852;2023-03-03T22:42:06;8.20;65.10
42147;DHT22;27815;43.410;11.852;2023-03-03T22:46:09;8.20;65.10
42147;DHT22;27815;43.410;11.852;2023-03-03T22:50:12;8.20;65.20
42147;DHT22;27815;43.410;11.852;2023-03-03T22:54:15;8.30;65.30
42147;DHT22;27815;43.410;11.852;2023-03-03T22:58:18;8.30;65.20
42147;DHT22;27815;43.410;11.852;2023-03-03T23:02:21;8.30;65.20
42147;DHT22;27815;43.410;11.852;2023-03-03T23:06:24;8.40;65.10
42147;DHT22;27815;43.410;11.852;2023-03-03T23:10:26;8.40;65.10
42147;DHT22;27815;43.410;11.852;2023-03-03T23:14:29;8.40;65.20
42147;DHT22;27815;43.410;11.852;2023-03-03T23:18:35;8.40;65.10
42147;DHT22;27815;43.410;11.852;2023-03-03T23:22:38;8.30;65.00
42147;DHT22;27815;43.410;11.852;2023-03-03T23:26:41;8.10;65.00
42147;DHT22;27815;43.410;11.852;2023-03-03T23:30:43;8.00;65.10
42147;DHT22;27815;43.410;11.852;2023-03-03T23:34:46;7.70;65.40
42147;DHT22;27815;43.410;11.852;2023-03-03T23:38:49;7.50;65.80
42147;DHT22;27815;43.410;11.852;2023-03-03T23:42:52;7.20;66.30
42147;DHT22;27815;43.410;11.852;2023-03-03T23:46:55;7.10;66.60
42147;DHT22;27815;43.410;11.852;2023-03-03T23:50:57;7.10;66.60
42147;DHT22;27815;43.410;11.852;2023-03-03T23:55:00;7.10;66.70
42147;DHT22;27815;43.410;11.852;2023-03-03T23:59:03;7.10;67.50
